Time;durP1;ratioP1;P1;durP2;ratioP2;P2;SDS_P1;SDS_P2;PMS_P1;PMS_P2;Temp;Humidity;BMP_temperature;BMP_pressure;BME280_temperature;BME280_humidity;BME280_pressure;Samples;Min_cycle;Max_cycle;Signal;HPM_P1;HPM_P2
2022/06/09 00:02:00;;;;;;;4.77;3.17;;;18.20;99.90;;;;;;5031668;28;20875;-82
2022/06/09 00:04:31;;;;;;;3.47;2.78;;;18.10;99.90;;;;;;5032477;28;20431;-83
2022/06/09 00:07:09;;;;;;;3.50;2.90;;;18.10;99.90;;;;;;5014091;28;20396;-82
2022/06/09 00:09:50;;;;;;;3.30;2.60;;;18.10;99.90;;;;;;5030535;28;20488;-83
2022/06/09 00:12:16;;;;;;;3.53;3.22;;;18.10;99.90;;;;;;5030591;28;20382;-83
2022/06/09 00:14:41;;;;;;;3.60;3.00;;;18.10;99.90;;;;;;5014248;28;20398;-82
2022/06/09 00:17:07;;;;;;;3.20;2.90;;;18.00;99.90;;;;;;5031691;28;20388;-82
2022/06/09 00:19:33;;;;;;;4.43;2.90;;;18.00;99.90;;;;;;5031980;28;20381;-82
2022/06/09 00:21:59;;;;;;;3.70;3.40;;;18.00;99.90;;;;;;5030527;28;20393;-83
2022/06/09 00:24:25;;;;;;;3.33;3.03;;;17.90;99.90;;;;;;5031627;28;20435;-82
2022/06/09 00:26:50;;;;;;;3.30;3.00;;;17.90;99.90;;;;;;5031187;28;20373;-82
2022/06/09 00:29:16;;;;;;;3.50;3.20;;;17.90;99.90;;;;;;5029963;28;20401;-82
2022/06/09 00:31:42;;;;;;;3.40;3.10;;;17.80;99.90;;;;;;5031087;28;20468;-82
2022/06/09 00:34:07;;;;;;;3.10;2.90;;;17.80;99.90;;;;;;5031869;28;20774;-82
2022/06/09 00:36:33;;;;;;;3.70;3.10;;;17.80;99.90;;;;;;5013841;28;20394;-81
2022/06/09 00:38:59;;;;;;;4.90;3.03;;;17.80;99.90;;;;;;5031184;28;20397;-81
2022/06/09 00:41:25;;;;;;;3.03;2.80;;;17.80;99.90;;;;;;5030967;28;20428;-82
2022/06/09 00:43:52;;;;;;;3.45;3.20;;;17.70;99.90;;;;;;5030779;28;20796;-83
2022/06/09 00:46:19;;;;;;;3.20;2.90;;;17.80;99.90;;;;;;5031092;28;20404;-82
2022/06/09 00:49:04;;;;;;;4.22;3.42;;;17.70;99.90;;;;;;5031502;28;20408;-82
2022/06/09 00:51:35;;;;;;;4.03;2.90;;;17.70;99.90;;;;;;5030898;28;20863;-82
2022/06/09 00:54:16;;;;;;;3.17;2.88;;;17.60;99.90;;;;;;5013079;28;20544;-82
2022/06/09 00:56:48;;;;;;;3.30;3.00;;;17.60;99.90;;;;;;5013319;28;20412;-82
2022/06/09 00:59:17;;;;;;;3.70;3.40;;;17.60;99.90;;;;;;5012968;28;21223;-82
2022/06/09 01:01:44;;;;;;;3.50;3.20;;;17.70;99.90;;;;;;5013004;28;20382;-82
2022/06/09 01:04:12;;;;;;;3.45;3.15;;;17.60;99.90;;;;;;5031400;28;20378;-83
2022/06/09 01:06:52;;;;;;;3.45;3.00;;;17.60;99.90;;;;;;5013419;28;20794;-82
2022/06/09 01:09:22;;;;;;;3.15;2.80;;;17.70;99.90;;;;;;5030755;28;20498;-82
2022/06/09 01:11:49;;;;;;;3.03;2.75;;;17.70;99.90;;;;;;5012796;28;20377;-82
2022/06/09 01:14:21;;;;;;;3.10;2.80;;;17.70;99.90;;;;;;5031213;28;20749;-82
2022/06/09 01:16:49;;;;;;;3.58;3.00;;;17.80;99.90;;;;;;5013492;28;20381;-82
2022/06/09 01:19:57;;;;;;;3.60;3.00;;;17.80;99.90;;;;;;5030723;28;20891;-82
2022/06/09 01:22:34;;;;;;;3.20;2.85;;;17.80;99.90;;;;;;4999548;28;20385;-82
2022/06/09 01:25:18;;;;;;;3.42;2.88;;;17.80;99.90;;;;;;5030898;28;20986;-82
2022/06/09 01:27:49;;;;;;;4.18;3.05;;;17.70;99.90;;;;;;5013249;28;20385;-81
2022/06/09 01:30:35;;;;;;;3.20;2.90;;;17.70;99.90;;;;;;5012542;28;20405;-82
2022/06/09 01:33:26;;;;;;;3.20;2.72;;;17.70;99.90;;;;;;5030569;28;20381;-82
2022/06/09 01:36:07;;;;;;;3.17;2.88;;;17.70;99.90;;;;;;5029800;28;20874;-82
2022/06/09 01:38:51;;;;;;;4.75;3.10;;;17.70;99.90;;;;;;5011859;28;20455;-82
2022/06/09 01:41:18;;;;;;;3.50;3.05;;;17.70;99.90;;;;;;5012638;28;20887;-81
2022/06/09 01:43:46;;;;;;;3.60;3.17;;;17.60;99.90;;;;;;5029627;28;20397;-81
2022/06/09 01:46:25;;;;;;;3.23;2.93;;;17.60;99.90;;;;;;5012535;28;20891;-81
2022/06/09 01:48:53;;;;;;;3.47;2.90;;;17.60;99.90;;;;;;5012351;28;20413;-81
2022/06/09 01:51:21;;;;;;;3.10;2.80;;;17.60;99.90;;;;;;5030034;28;20885;-81
2022/06/09 01:53:57;;;;;;;3.42;3.03;;;17.50;99.90;;;;;;5012147;28;20408;-81
2022/06/09 01:56:30;;;;;;;3.25;3.05;;;17.50;99.90;;;;;;5030398;28;20476;-81
2022/06/09 01:59:10;;;;;;;4.72;3.13;;;17.50;99.90;;;;;;5011501;28;20444;-81
2022/06/09 02:01:41;;;;;;;3.78;3.10;;;17.50;99.90;;;;;;5029613;28;20442;-81
2022/06/09 02:04:14;;;;;;;3.55;2.90;;;17.40;99.90;;;;;;5030211;28;20385;-81
2022/06/09 02:06:41;;;;;;;3.28;2.97;;;17.40;99.90;;;;;;5030139;28;20855;-80
2022/06/09 02:09:07;;;;;;;4.15;3.40;;;17.40;99.90;;;;;;5029844;28;20444;-81
2022/06/09 02:11:33;;;;;;;3.55;3.25;;;17.40;99.90;;;;;;5030046;28;20382;-80
2022/06/09 02:14:00;;;;;;;3.50;2.92;;;17.20;99.90;;;;;;5029880;28;20414;-80
2022/06/09 02:16:26;;;;;;;4.15;3.42;;;17.10;99.90;;;;;;5012079;28;20381;-80
2022/06/09 02:18:55;;;;;;;3.90;3.05;;;17.00;99.90;;;;;;5029547;28;20431;-81
2022/06/09 02:21:23;;;;;;;3.20;2.70;;;17.00;99.90;;;;;;5029726;28;20851;-81
2022/06/09 02:23:49;;;;;;;4.23;3.43;;;16.90;99.90;;;;;;5011529;28;20887;-81
2022/06/09 02:26:16;;;;;;;3.33;3.03;;;16.90;99.90;;;;;;5029653;28;20447;-81
2022/06/09 02:28:42;;;;;;;5.40;3.33;;;16.80;99.90;;;;;;5029516;28;20408;-81
2022/06/09 02:31:09;;;;;;;3.13;2.83;;;16.80;99.90;;;;;;5029350;28;20492;-81
2022/06/09 02:33:35;;;;;;;5.60;3.00;;;16.70;99.90;;;;;;5029586;28;20380;-81
2022/06/09 02:36:00;;;;;;;3.55;2.92;;;16.70;99.90;;;;;;5011444;28;20889;-81
2022/06/09 02:38:26;;;;;;;4.53;3.20;;;16.70;99.90;;;;;;5010960;28;20398;-80
2022/06/09 02:40:54;;;;;;;4.28;3.30;;;16.60;99.90;;;;;;5029244;28;20378;-82
2022/06/09 02:43:20;;;;;;;4.40;3.28;;;16.50;99.90;;;;;;5029330;28;20381;-82
2022/06/09 02:45:46;;;;;;;4.53;3.47;;;16.50;99.90;;;;;;5029660;28;20385;-82
2022/06/09 02:48:12;;;;;;;3.35;3.05;;;16.40;99.90;;;;;;5029538;28;20913;-82
2022/06/09 02:50:41;;;;;;;6.72;3.25;;;;;;;;;;5011408;28;20747;-82
2022/06/09 02:53:07;;;;;;;3.65;3.22;;;16.30;99.90;;;;;;5011112;28;20396;-82
2022/06/09 02:55:33;;;;;;;3.45;3.15;;;16.30;99.90;;;;;;5011621;28;20488;-82
2022/06/09 02:57:59;;;;;;;3.97;3.35;;;16.20;99.90;;;;;;5029192;28;20881;-82
2022/06/09 03:00:25;;;;;;;3.60;3.30;;;16.10;99.90;;;;;;5028952;28;20385;-82
2022/06/09 03:02:53;;;;;;;3.95;3.17;;;16.10;99.90;;;;;;5029251;28;20409;-82
2022/06/09 03:05:20;;;;;;;4.60;3.90;;;16.00;99.90;;;;;;5029171;28;20376;-82
2022/06/09 03:07:45;;;;;;;4.88;3.50;;;16.00;99.90;;;;;;5011519;28;20902;-82
2022/06/09 03:10:11;;;;;;;3.47;3.17;;;16.00;99.90;;;;;;5028799;28;20551;-82
2022/06/09 03:12:36;;;;;;;3.72;2.88;;;15.90;99.90;;;;;;5011378;28;20382;-82
2022/06/09 03:15:07;;;;;;;3.73;3.00;;;15.90;99.90;;;;;;5028760;28;20374;-82
2022/06/09 03:17:36;;;;;;;3.40;3.10;;;15.90;99.90;;;;;;5028597;28;20890;-82
2022/06/09 03:20:04;;;;;;;3.00;2.70;;;15.80;99.90;;;;;;5028847;28;20373;-81
2022/06/09 03:22:30;;;;;;;3.55;3.15;;;15.80;99.90;;;;;;5011413;28;20435;-82
2022/06/09 03:24:56;;;;;;;4.55;3.15;;;15.90;99.90;;;;;;5028734;28;20401;-82
2022/06/09 03:27:22;;;;;;;6.63;3.07;;;15.80;99.90;;;;;;5011290;28;20391;-82
2022/06/09 03:29:47;;;;;;;3.50;2.95;;;15.90;99.90;;;;;;5029196;28;20887;-82
2022/06/09 03:32:13;;;;;;;4.95;3.20;;;15.90;99.90;;;;;;5028937;28;20390;-82
2022/06/09 03:34:39;;;;;;;3.60;2.83;;;15.90;99.90;;;;;;5010893;28;20404;-82
2022/06/09 03:37:04;;;;;;;3.40;3.00;;;15.90;99.90;;;;;;5029166;28;20377;-82
2022/06/09 03:39:30;;;;;;;4.00;2.90;;;15.90;99.90;;;;;;5028635;28;20386;-82
2022/06/09 03:41:56;;;;;;;5.35;3.08;;;16.10;99.90;;;;;;5028393;28;20728;-82
2022/06/09 03:44:21;;;;;;;4.37;3.13;;;16.00;99.90;;;;;;5028822;28;20374;-82
2022/06/09 03:46:47;;;;;;;5.32;3.38;;;16.00;99.90;;;;;;5010838;28;20898;-82
2022/06/09 03:49:13;;;;;;;4.87;3.00;;;16.00;99.90;;;;;;5028716;28;20414;-82
2022/06/09 03:51:38;;;;;;;4.67;3.00;;;16.00;99.90;;;;;;5028328;28;20875;-82
2022/06/09 03:54:04;;;;;;;3.25;2.90;;;16.10;99.90;;;;;;5009941;28;20416;-82
2022/06/09 03:56:30;;;;;;;7.40;3.43;;;16.20;99.90;;;;;;5011100;28;20385;-83
2022/06/09 03:58:55;;;;;;;6.07;3.38;;;16.20;99.90;;;;;;5010962;28;20393;-82
2022/06/09 04:01:21;;;;;;;4.50;2.90;;;16.30;99.90;;;;;;5028291;28;20378;-82
2022/06/09 04:03:48;;;;;;;5.70;3.73;;;16.40;99.90;;;;;;5029870;28;20918;-82
2022/06/09 04:06:19;;;;;;;3.35;2.58;;;16.40;99.90;;;;;;5032014;28;20378;-82
2022/06/09 04:08:45;;;;;;;3.33;2.65;;;16.60;99.90;;;;;;5030801;28;20409;-82
2022/06/09 04:11:11;;;;;;;5.35;3.28;;;16.70;99.90;;;;;;5014161;28;20782;-82
2022/06/09 04:13:38;;;;;;;3.90;2.60;;;17.00;99.90;;;;;;5032005;28;20409;-82
2022/06/09 04:16:23;;;;;;;4.57;2.65;;;17.30;99.90;;;;;;5032241;28;20445;-82
2022/06/09 04:18:49;;;;;;;3.67;2.42;;;17.50;99.90;;;;;;5031573;28;21170;-82
2022/06/09 04:21:16;;;;;;;3.72;2.53;;;17.80;99.90;;;;;;5031774;28;20408;-82
2022/06/09 04:23:42;;;;;;;4.03;2.13;;;18.10;99.90;;;;;;5031283;28;20465;-82
2022/06/09 04:26:15;;;;;;;4.43;2.00;;;18.40;99.90;;;;;;5031361;28;20480;-82
2022/06/09 04:28:41;;;;;;;4.68;2.13;;;18.60;99.90;;;;;;5013786;28;20406;-85
2022/06/09 04:31:07;;;;;;;3.70;2.20;;;;;;;;;;5031141;28;20366;-83
2022/06/09 04:33:32;;;;;;;3.83;1.83;;;19.00;99.90;;;;;;5031423;28;20373;-84
2022/06/09 04:35:58;;;;;;;3.53;2.00;;;19.10;99.90;;;;;;5013570;28;20384;-82
2022/06/09 04:38:24;;;;;;;3.38;1.90;;;19.40;99.90;;;;;;5013499;28;20389;-83
2022/06/09 04:40:49;;;;;;;3.47;1.77;;;19.40;99.90;;;;;;5012504;28;20887;-84
2022/06/09 04:43:15;;;;;;;3.78;2.00;;;19.40;99.90;;;;;;5031192;28;20380;-83
2022/06/09 04:45:42;;;;;;;3.60;1.80;;;19.40;99.90;;;;;;5031557;28;20377;-84
2022/06/09 04:48:11;;;;;;;3.13;1.58;;;19.40;99.90;;;;;;5030941;28;20415;-83
2022/06/09 04:50:37;;;;;;;3.95;2.17;;;19.20;99.90;;;;;;5013281;28;20369;-83
2022/06/09 04:53:05;;;;;;;5.20;2.28;;;18.90;99.90;;;;;;5013661;28;20396;-83
2022/06/09 04:55:30;;;;;;;5.10;2.05;;;18.80;99.90;;;;;;5012972;28;20420;-83
2022/06/09 04:57:56;;;;;;;5.03;1.90;;;18.70;99.90;;;;;;5030668;28;20874;-83
2022/06/09 05:00:22;;;;;;;8.50;2.07;;;18.70;99.90;;;;;;5012522;28;20484;-83
2022/06/09 05:02:50;;;;;;;5.07;1.70;;;18.60;99.90;;;;;;5012887;28;20880;-84
2022/06/09 05:05:22;;;;;;;3.60;1.88;;;18.50;99.90;;;;;;5012908;28;20744;-83
2022/06/09 05:07:48;;;;;;;3.35;1.95;;;18.40;99.90;;;;;;5031320;28;20386;-83
2022/06/09 05:10:13;;;;;;;4.33;1.90;;;18.40;99.90;;;;;;5012145;28;20417;-84
2022/06/09 05:12:39;;;;;;;5.43;2.00;;;18.40;99.90;;;;;;5012704;28;20444;-84
2022/06/09 05:15:06;;;;;;;4.70;1.95;;;18.40;99.90;;;;;;5030188;28;20398;-83
2022/06/09 05:17:31;;;;;;;8.73;2.15;;;18.30;99.90;;;;;;5030863;28;20389;-83
2022/06/09 05:19:57;;;;;;;6.05;2.35;;;18.30;99.90;;;;;;5030675;28;20374;-83
2022/06/09 05:22:23;;;;;;;6.77;2.40;;;18.40;99.90;;;;;;5030577;28;20393;-83
2022/06/09 05:24:48;;;;;;;4.47;2.00;;;18.40;99.90;;;;;;5013043;28;20366;-83
2022/06/09 05:27:14;;;;;;;5.87;2.00;;;18.40;99.90;;;;;;5013053;28;20416;-84
2022/06/09 05:29:41;;;;;;;4.47;2.10;;;18.30;99.90;;;;;;5012852;28;20401;-83
2022/06/09 05:32:08;;;;;;;11.73;2.50;;;18.20;99.90;;;;;;5030525;28;20844;-83
2022/06/09 05:34:34;;;;;;;8.73;2.70;;;18.20;99.90;;;;;;5013035;28;20925;-83
2022/06/09 05:37:00;;;;;;;8.52;2.55;;;18.30;99.90;;;;;;5012470;28;20479;-83
2022/06/09 05:44:58;;;;;;;5.25;2.00;;;18.10;99.90;;;;;;5030345;28;20404;-83
2022/06/09 05:47:24;;;;;;;7.50;2.47;;;18.10;99.90;;;;;;5030515;28;20378;-84
2022/06/09 05:49:53;;;;;;;5.60;1.80;;;18.10;99.90;;;;;;5012267;28;20814;-83
2022/06/09 05:52:22;;;;;;;6.43;2.10;;;18.20;99.90;;;;;;5030030;28;20871;-82
2022/06/09 05:54:49;;;;;;;4.10;2.22;;;18.30;99.90;;;;;;5030040;28;20443;-83
2022/06/09 05:57:14;;;;;;;5.22;2.10;;;18.30;99.90;;;;;;5012225;28;20899;-83
2022/06/09 05:59:40;;;;;;;7.70;2.50;;;18.40;99.90;;;;;;5029792;28;20448;-83
2022/06/09 06:02:08;;;;;;;7.90;2.50;;;18.50;99.90;;;;;;5029475;28;20882;-83
2022/06/09 06:04:34;;;;;;;6.37;2.23;;;18.60;99.90;;;;;;5029296;28;20385;-82
2022/06/09 06:07:00;;;;;;;4.63;2.45;;;18.70;99.90;;;;;;5029975;28;20388;-83
2022/06/09 06:09:26;;;;;;;5.03;2.20;;;18.90;99.90;;;;;;5029738;28;20907;-83
2022/06/09 06:11:52;;;;;;;6.20;2.35;;;19.00;99.90;;;;;;5028750;28;20405;-82
2022/06/09 06:14:19;;;;;;;4.65;2.40;;;19.10;99.90;;;;;;5029480;28;20389;-83
2022/06/09 06:16:46;;;;;;;5.07;2.40;;;19.30;99.90;;;;;;5029753;28;20419;-83
2022/06/09 06:19:16;;;;;;;4.10;2.40;;;19.40;99.90;;;;;;5011876;28;20521;-83
2022/06/09 06:21:42;;;;;;;7.10;2.70;;;19.50;99.90;;;;;;5011724;28;20385;-84
2022/06/09 06:24:09;;;;;;;4.20;2.35;;;19.40;99.90;;;;;;5011851;28;20393;-83
2022/06/09 06:26:35;;;;;;;5.10;2.60;;;19.40;99.90;;;;;;5028095;28;20468;-83
2022/06/09 06:29:02;;;;;;;4.20;2.28;;;19.40;99.90;;;;;;5029296;28;21122;-83
2022/06/09 06:31:27;;;;;;;5.88;2.50;;;19.40;99.90;;;;;;5029361;28;20365;-83
2022/06/09 06:33:53;;;;;;;4.63;2.57;;;19.50;99.90;;;;;;5010958;28;20396;-83
2022/06/09 06:36:19;;;;;;;3.92;2.17;;;19.30;99.90;;;;;;5029415;28;20380;-84
2022/06/09 06:38:45;;;;;;;4.00;2.45;;;19.30;99.90;;;;;;5029012;28;20373;-84
2022/06/09 06:41:12;;;;;;;4.55;2.90;;;19.20;99.90;;;;;;5010688;28;20405;-83
2022/06/09 06:43:38;;;;;;;6.78;2.50;;;19.10;99.90;;;;;;5011674;28;20381;-83
2022/06/09 06:46:04;;;;;;;6.00;2.40;;;19.20;99.90;;;;;;5011378;28;20382;-83
2022/06/09 06:48:32;;;;;;;4.15;2.40;;;19.20;99.90;;;;;;5011655;28;20856;-83
2022/06/09 06:50:58;;;;;;;3.38;2.42;;;19.20;99.90;;;;;;5010994;28;20374;-83
2022/06/09 06:53:24;;;;;;;5.70;2.57;;;19.10;99.90;;;;;;5029203;28;20396;-83
2022/06/09 06:55:49;;;;;;;5.05;2.53;;;19.00;99.90;;;;;;5011065;28;20495;-83
2022/06/09 06:58:15;;;;;;;6.25;2.80;;;19.00;99.90;;;;;;5029385;28;20473;-84
2022/06/09 07:00:42;;;;;;;4.57;2.40;;;18.90;99.90;;;;;;5028714;28;20721;-83
2022/06/09 07:03:08;;;;;;;5.22;2.30;;;18.90;99.90;;;;;;5026186;28;20479;-84
2022/06/09 07:05:34;;;;;;;4.20;2.40;;;18.90;99.90;;;;;;5028518;28;20385;-84
2022/06/09 07:08:00;;;;;;;7.38;2.80;;;18.90;99.90;;;;;;5011142;28;20386;-83
2022/06/09 07:10:26;;;;;;;4.83;2.50;;;18.90;99.90;;;;;;5026536;28;20409;-83
2022/06/09 07:12:52;;;;;;;4.90;2.43;;;19.10;99.90;;;;;;5008997;28;20828;-84
2022/06/09 07:15:18;;;;;;;2.58;2.20;;;19.30;99.90;;;;;;5012337;28;20492;-83
2022/06/09 07:17:44;;;;;;;5.13;2.50;;;19.40;99.90;;;;;;5017153;28;20408;-83
2022/06/09 07:20:12;;;;;;;5.40;2.67;;;19.50;99.90;;;;;;5028235;28;20460;-83
2022/06/09 07:22:38;;;;;;;4.95;2.65;;;19.60;99.90;;;;;;5027171;28;20455;-84
2022/06/09 07:25:05;;;;;;;4.53;2.70;;;19.70;99.90;;;;;;5028144;28;20396;-84
2022/06/09 07:27:36;;;;;;;4.40;2.70;;;19.80;99.90;;;;;;5010379;28;20385;-84
2022/06/09 07:30:03;;;;;;;9.88;3.13;;;19.70;99.90;;;;;;5028148;28;20596;-83
2022/06/09 07:32:29;;;;;;;5.28;2.75;;;19.70;99.90;;;;;;5010402;28;20390;-83
2022/06/09 07:34:55;;;;;;;6.38;3.20;;;19.90;99.90;;;;;;5028214;28;20795;-84
2022/06/09 07:37:20;;;;;;;4.20;2.67;;;20.00;99.90;;;;;;5029167;28;20389;-84
2022/06/09 07:39:46;;;;;;;5.57;3.20;;;20.00;99.90;;;;;;5032006;28;20875;-83
2022/06/09 07:42:13;;;;;;;3.63;2.80;;;20.10;99.90;;;;;;5030200;28;21102;-84
2022/06/09 07:44:44;;;;;;;4.37;2.50;;;20.20;99.90;;;;;;5024487;28;20419;-84
2022/06/09 07:47:09;;;;;;;5.83;2.97;;;20.10;99.90;;;;;;5031704;28;20381;-83
2022/06/09 07:49:35;;;;;;;4.93;3.13;;;20.00;99.90;;;;;;5013897;28;20401;-83
2022/06/09 07:52:01;;;;;;;4.87;2.70;;;20.00;99.90;;;;;;5012252;28;20385;-83
2022/06/09 07:54:26;;;;;;;5.80;2.70;;;20.00;99.90;;;;;;5004532;28;20393;-83
2022/06/09 07:56:52;;;;;;;10.97;3.10;;;20.00;99.90;;;;;;5019794;28;20386;-83
2022/06/09 07:59:18;;;;;;;5.45;2.95;;;20.10;99.90;;;;;;5001411;28;20428;-84
2022/06/09 08:01:46;;;;;;;5.30;3.25;;;20.10;99.90;;;;;;5004894;28;20400;-84
2022/06/09 08:04:12;;;;;;;6.72;3.45;;;20.10;99.90;;;;;;5023791;28;20805;-84
2022/06/09 08:06:39;;;;;;;5.55;3.30;;;20.10;99.90;;;;;;5018274;28;20408;-85
2022/06/09 08:09:05;;;;;;;6.78;3.38;;;20.10;99.90;;;;;;5020624;28;20470;-83
2022/06/09 08:11:38;;;;;;;4.15;3.38;;;20.20;99.90;;;;;;5020307;28;20387;-84
2022/06/09 08:14:05;;;;;;;4.83;3.20;;;20.30;99.90;;;;;;5022418;28;20501;-84
2022/06/09 08:16:32;;;;;;;4.80;3.08;;;20.20;99.90;;;;;;5021638;28;20440;-83
2022/06/09 08:18:58;;;;;;;3.20;2.90;;;20.20;99.90;;;;;;5018244;28;20393;-83
2022/06/09 08:21:26;;;;;;;8.63;3.08;;;20.20;99.90;;;;;;5003985;28;20465;-83
2022/06/09 08:23:52;;;;;;;5.33;3.23;;;20.30;99.90;;;;;;5017305;28;20390;-84
2022/06/09 08:26:18;;;;;;;4.30;3.15;;;20.30;99.90;;;;;;4999486;28;20750;-84
2022/06/09 08:28:44;;;;;;;5.70;2.97;;;20.30;99.90;;;;;;5013759;28;20443;-84
2022/06/09 08:31:09;;;;;;;4.00;2.92;;;20.20;99.90;;;;;;5013942;28;20383;-83
2022/06/09 08:33:35;;;;;;;5.83;2.50;;;20.00;99.90;;;;;;5003094;28;20740;-84
2022/06/09 08:36:02;;;;;;;5.53;2.67;;;20.10;99.90;;;;;;5022496;28;20393;-84
2022/06/09 08:38:28;;;;;;;5.75;3.10;;;20.20;99.90;;;;;;5020288;28;20379;-84
2022/06/09 08:41:17;;;;;;;4.57;2.85;;;20.30;99.90;;;;;;5006735;28;20414;-83
2022/06/09 08:43:47;;;;;;;5.57;3.00;;;20.30;99.90;;;;;;5021682;28;20417;-83
2022/06/09 08:46:19;;;;;;;5.15;3.08;;;20.30;99.90;;;;;;5020595;28;20384;-83
2022/06/09 08:48:46;;;;;;;3.40;2.97;;;20.10;99.90;;;;;;5005992;28;20496;-84
2022/06/09 08:51:20;;;;;;;9.90;3.60;;;20.10;99.90;;;;;;5023598;28;20390;-84
2022/06/09 08:53:51;;;;;;;4.70;3.30;;;19.90;99.90;;;;;;5003070;28;20439;-84
2022/06/09 08:56:27;;;;;;;6.13;3.15;;;19.90;99.90;;;;;;5020789;28;20385;-83
2022/06/09 08:59:02;;;;;;;4.80;3.58;;;19.80;99.90;;;;;;5021572;28;20420;-83
2022/06/09 09:02:14;;;;;;;6.53;4.07;;;19.70;99.90;;;;;;5027136;28;20452;-84
2022/06/09 09:04:45;;;;;;;4.13;3.50;;;19.80;99.90;;;;;;5017356;28;21013;-83
2022/06/09 09:07:20;;;;;;;3.65;3.22;;;19.90;99.90;;;;;;5003923;28;20808;-84
2022/06/09 09:09:47;;;;;;;4.63;2.97;;;20.10;99.90;;;;;;5002482;28;20471;-85
2022/06/09 09:12:55;;;;;;;4.97;3.08;;;20.20;99.90;;;;;;5018047;28;20438;-84
2022/06/09 09:15:23;;;;;;;6.63;3.03;;;20.30;99.90;;;;;;4998197;28;20394;-83
2022/06/09 09:17:55;;;;;;;4.50;3.03;;;20.40;99.90;;;;;;5020643;28;20404;-84
2022/06/09 09:20:26;;;;;;;5.40;2.85;;;;;;;;;;5018839;28;20391;-84
2022/06/09 09:23:03;;;;;;;5.03;2.90;;;;;;;;;;5003913;28;20962;-83
2022/06/09 09:25:53;;;;;;;10.80;3.40;;;20.80;99.90;;;;;;5000792;28;20900;-83
2022/06/09 09:28:25;;;;;;;5.30;3.28;;;20.90;99.90;;;;;;5018408;28;21238;-83
2022/06/09 09:31:09;;;;;;;11.02;3.70;;;20.70;99.90;;;;;;5020387;28;20389;-83
2022/06/09 09:33:35;;;;;;;6.57;3.80;;;20.90;99.90;;;;;;5019666;28;20941;-84
2022/06/09 09:36:13;;;;;;;4.03;3.00;;;21.00;99.90;;;;;;5011918;28;20398;-84
2022/06/09 09:38:49;;;;;;;3.75;2.90;;;21.50;99.90;;;;;;5030530;28;20378;-85
2022/06/09 09:41:34;;;;;;;5.80;3.30;;;21.40;99.90;;;;;;5023098;28;20400;-83
2022/06/09 09:44:16;;;;;;;4.43;3.30;;;21.60;99.90;;;;;;5008627;28;20918;-84
2022/06/09 09:46:46;;;;;;;5.47;3.28;;;21.80;99.90;;;;;;5003325;28;20399;-83
2022/06/09 09:49:22;;;;;;;4.32;3.80;;;22.10;99.90;;;;;;5000619;28;20415;-83
2022/06/09 09:51:49;;;;;;;5.07;3.50;;;22.00;99.90;;;;;;5001717;28;20397;-85
2022/06/09 09:54:36;;;;;;;5.57;3.40;;;22.10;99.90;;;;;;5020982;28;20534;-83
2022/06/09 09:57:14;;;;;;;5.97;3.30;;;22.20;99.90;;;;;;5021215;28;21025;-84
2022/06/09 09:59:45;;;;;;;4.85;3.28;;;;;;;;;;5019315;28;21492;-83
2022/06/09 10:08:39;;;;;;;5.30;3.57;;;;;;;;;;5030418;28;20432;-83
2022/06/09 10:13:58;;;;;;;6.95;3.42;;;;;;;;;;5016399;28;20798;-82
2022/06/09 10:16:28;;;;;;;5.63;3.20;;;23.50;99.90;;;;;;5015634;28;20403;-84
2022/06/09 10:18:59;;;;;;;4.88;3.10;;;23.50;99.90;;;;;;4997601;28;20395;-83
2022/06/09 10:21:25;;;;;;;4.35;3.10;;;23.60;99.90;;;;;;5014420;28;20398;-84
2022/06/09 10:23:57;;;;;;;4.45;3.40;;;23.80;99.90;;;;;;4998132;28;20488;-84
2022/06/09 10:26:32;;;;;;;5.93;3.92;;;23.60;99.90;;;;;;5015906;28;20477;-84
2022/06/09 10:29:15;;;;;;;7.38;3.60;;;23.40;99.90;;;;;;5017331;28;20908;-84
2022/06/09 10:32:05;;;;;;;6.72;3.47;;;23.10;99.90;;;;;;5014864;28;20494;-82
2022/06/09 10:34:48;;;;;;;5.50;3.60;;;23.10;99.90;;;;;;5015284;28;20462;-83
2022/06/09 10:37:49;;;;;;;4.95;3.85;;;23.00;99.90;;;;;;5019073;28;20383;-83
2022/06/09 10:40:36;;;;;;;7.45;3.80;;;22.90;99.90;;;;;;4983137;28;20385;-84
2022/06/09 10:43:10;;;;;;;5.70;3.65;;;23.00;99.90;;;;;;5016814;28;20398;-83
2022/06/09 10:46:06;;;;;;;5.22;3.63;;;23.20;99.90;;;;;;5018202;28;20409;-83
2022/06/09 10:57:42;;;;;;;5.57;4.00;;;23.90;99.90;;;;;;5019476;28;20380;-83
2022/06/09 11:00:24;;;;;;;5.05;3.90;;;23.80;99.90;;;;;;5019331;28;20468;-84
2022/06/09 11:02:54;;;;;;;5.85;3.83;;;23.60;99.90;;;;;;5018434;28;20394;-83
2022/06/09 11:05:34;;;;;;;5.43;4.07;;;23.90;99.90;;;;;;5007797;28;20403;-84
2022/06/09 11:08:29;;;;;;;5.53;4.18;;;24.00;99.90;;;;;;5016550;28;20423;-83
2022/06/09 11:11:10;;;;;;;7.47;4.47;;;;;;;;;;4950723;28;20412;-84
2022/06/09 11:13:54;;;;;;;4.43;3.95;;;24.20;99.90;;;;;;5015294;28;20905;-83
2022/06/09 11:16:22;;;;;;;4.40;3.35;;;24.30;99.90;;;;;;5021204;28;20414;-83
2022/06/09 11:19:12;;;;;;;5.60;3.33;;;24.30;99.90;;;;;;5019833;28;20387;-83
2022/06/09 11:21:44;;;;;;;6.10;3.03;;;;;;;;;;5001003;28;20397;-82
2022/06/09 11:24:28;;;;;;;11.35;8.80;;;24.70;99.90;;;;;;5001197;28;20531;-83
2022/06/09 11:27:13;;;;;;;9.27;3.72;;;;;;;;;;5022273;28;20865;-82
2022/06/09 11:29:41;;;;;;;19.95;14.98;;;25.30;99.90;;;;;;5019102;28;20420;-83
2022/06/09 11:32:27;;;;;;;4.57;3.20;;;25.50;99.90;;;;;;5003401;28;20489;-83
2022/06/09 11:35:22;;;;;;;6.03;3.30;;;25.50;99.90;;;;;;5021297;28;20395;-82
2022/06/09 11:38:12;;;;;;;5.28;3.40;;;25.50;99.90;;;;;;5014637;28;20389;-83
2022/06/09 11:41:04;;;;;;;7.82;3.70;;;25.50;99.90;;;;;;5020764;28;20936;-82
2022/06/09 11:43:52;;;;;;;6.45;3.95;;;25.20;99.90;;;;;;5020421;28;20407;-83
2022/06/09 11:46:30;;;;;;;6.43;3.92;;;;;;;;;;5002961;28;20403;-83
2022/06/09 11:49:01;;;;;;;7.05;3.88;;;24.20;99.90;;;;;;5015504;28;20515;-83
2022/06/09 11:51:29;;;;;;;8.15;4.28;;;23.60;99.90;;;;;;5004806;28;20392;-82
2022/06/09 11:54:02;;;;;;;5.10;4.05;;;23.10;99.90;;;;;;5003212;28;20389;-82
2022/06/09 11:56:43;;;;;;;6.70;4.65;;;22.60;99.90;;;;;;5018478;28;20441;-82
2022/06/09 11:59:22;;;;;;;9.45;4.70;;;22.30;99.90;;;;;;4994809;28;20387;-83
2022/06/09 12:01:57;;;;;;;6.32;4.15;;;22.10;99.90;;;;;;4994687;28;20392;-82
2022/06/09 12:05:13;;;;;;;7.90;4.90;;;22.10;99.90;;;;;;4994908;28;20764;-84
2022/06/09 12:07:51;;;;;;;9.57;4.75;;;21.80;99.90;;;;;;5011002;28;20395;-82
2022/06/09 12:10:17;;;;;;;6.28;4.10;;;21.80;99.90;;;;;;4994892;28;20399;-83
2022/06/09 12:12:45;;;;;;;6.43;4.27;;;21.80;99.90;;;;;;5022055;28;20441;-82
2022/06/09 12:15:29;;;;;;;8.10;5.33;;;21.80;99.90;;;;;;5002798;28;20402;-83
2022/06/09 12:18:03;;;;;;;6.93;5.55;;;21.80;99.90;;;;;;5021223;28;20448;-84
2022/06/09 12:20:38;;;;;;;9.40;4.68;;;22.10;99.90;;;;;;5004027;28;20869;-83
2022/06/09 12:23:22;;;;;;;5.38;4.60;;;22.30;99.90;;;;;;4996323;28;20434;-84
2022/06/09 12:26:09;;;;;;;13.15;5.40;;;;;;;;;;5019894;28;20718;-82
2022/06/09 12:28:52;;;;;;;8.50;4.72;;;22.60;99.90;;;;;;5014109;28;20447;-83
2022/06/09 12:31:31;;;;;;;8.50;4.95;;;22.90;99.90;;;;;;5010506;28;20401;-83
2022/06/09 12:34:16;;;;;;;6.65;4.50;;;23.30;99.90;;;;;;5006391;28;20463;-82
2022/06/09 12:36:52;;;;;;;8.32;4.68;;;23.40;99.90;;;;;;5007529;28;20394;-82
2022/06/09 12:39:39;;;;;;;7.60;4.63;;;23.70;99.90;;;;;;5002015;28;20466;-83
2022/06/09 12:42:07;;;;;;;8.82;4.80;;;23.80;99.90;;;;;;5003219;28;20418;-83
2022/06/09 12:44:59;;;;;;;9.00;5.07;;;24.00;99.90;;;;;;4993637;28;20420;-83
2022/06/09 12:47:25;;;;;;;6.55;4.85;;;24.20;99.90;;;;;;4973536;28;20385;-84
2022/06/09 12:49:57;;;;;;;6.43;4.68;;;24.10;99.90;;;;;;4990428;28;20416;-84
2022/06/09 12:52:45;;;;;;;11.57;6.03;;;23.90;99.90;;;;;;5002427;28;21146;-84
2022/06/09 12:55:21;;;;;;;7.43;5.60;;;23.50;99.90;;;;;;4983724;28;20417;-82
2022/06/09 12:57:56;;;;;;;7.97;5.40;;;22.90;99.90;;;;;;4984083;28;20412;-84
2022/06/09 13:00:28;;;;;;;7.25;5.40;;;22.40;99.90;;;;;;5001281;28;20383;-84
2022/06/09 13:02:55;;;;;;;6.88;5.57;;;22.20;99.90;;;;;;4983295;28;20893;-83
2022/06/09 13:05:33;;;;;;;11.23;5.90;;;21.90;99.90;;;;;;4983085;28;20718;-83
2022/06/09 13:08:20;;;;;;;8.88;5.75;;;21.80;99.90;;;;;;4982177;28;20449;-83
2022/06/09 13:11:00;;;;;;;6.47;4.63;;;21.70;99.90;;;;;;5002197;28;20490;-82
2022/06/09 13:13:46;;;;;;;6.65;5.20;;;21.70;99.90;;;;;;5010320;28;20383;-82
2022/06/09 13:16:16;;;;;;;7.05;5.03;;;21.70;99.90;;;;;;5010108;28;20499;-83
2022/06/09 13:18:46;;;;;;;6.60;5.00;;;21.90;99.90;;;;;;5011659;28;20399;-82
2022/06/09 13:21:19;;;;;;;7.15;4.90;;;21.90;99.90;;;;;;5018055;28;20362;-83
2022/06/09 13:23:48;;;;;;;8.50;5.25;;;22.10;99.90;;;;;;5012671;28;20390;-82
2022/06/09 13:26:19;;;;;;;9.73;5.57;;;22.10;99.90;;;;;;5011884;28;20971;-83
2022/06/09 13:28:52;;;;;;;7.73;5.00;;;22.10;99.90;;;;;;5010393;28;20476;-83
2022/06/09 13:31:37;;;;;;;7.05;4.88;;;22.00;99.90;;;;;;5013099;28;20398;-82
2022/06/09 13:34:20;;;;;;;8.73;5.20;;;22.10;99.90;;;;;;5012665;28;20387;-82
2022/06/09 13:36:55;;;;;;;10.40;5.17;;;22.40;99.90;;;;;;4972249;28;20402;-82